createdAt,value
2019-02-19T00:00:03.558Z,19.58
2019-02-19T00:01:04.771Z,19.58
2019-02-19T00:02:07.805Z,19.58
2019-02-19T00:03:09.022Z,19.58
2019-02-19T00:04:10.150Z,19.56
2019-02-19T00:05:11.268Z,19.56
2019-02-19T00:06:12.380Z,19.56
2019-02-19T00:07:13.597Z,19.55
2019-02-19T00:08:14.709Z,19.55
2019-02-19T00:09:15.948Z,19.55
2019-02-19T00:10:17.168Z,19.54
2019-02-19T00:11:18.282Z,19.53
2019-02-19T00:12:19.594Z,19.53
2019-02-19T00:13:20.705Z,19.51
2019-02-19T00:14:21.829Z,19.51
2019-02-19T00:15:23.148Z,19.50
2019-02-19T00:16:24.261Z,19.48
2019-02-19T00:17:25.384Z,19.48
2019-02-19T00:18:26.496Z,19.47
2019-02-19T00:19:27.617Z,19.48
2019-02-19T00:20:28.731Z,19.47
2019-02-19T00:21:29.849Z,19.46
2019-02-19T00:22:30.961Z,19.45
2019-02-19T00:23:32.076Z,19.45
2019-02-19T00:24:33.202Z,19.44
2019-02-19T00:25:34.323Z,19.43
2019-02-19T00:26:35.436Z,19.43
2019-02-19T00:27:36.553Z,19.43
2019-02-19T00:28:37.670Z,19.43
2019-02-19T00:29:38.964Z,19.43
2019-02-19T00:30:40.081Z,19.43
2019-02-19T00:31:41.197Z,19.42
2019-02-19T00:32:42.423Z,19.42
2019-02-19T00:33:43.639Z,19.42
2019-02-19T00:34:44.765Z,19.42
2019-02-19T00:35:45.887Z,19.42
2019-02-19T00:36:46.996Z,19.43
2019-02-19T00:37:48.121Z,19.43
2019-02-19T00:38:49.286Z,19.42
2019-02-19T00:39:50.389Z,19.43
2019-02-19T00:40:51.517Z,19.43
2019-02-19T00:41:52.681Z,19.43
2019-02-19T00:42:53.856Z,19.43
2019-02-19T00:43:54.971Z,19.43
2019-02-19T00:44:56.097Z,19.43
2019-02-19T00:45:57.214Z,19.44
2019-02-19T00:46:58.324Z,19.43
2019-02-19T00:47:59.431Z,19.45
2019-02-19T00:49:00.545Z,19.44
2019-02-19T00:50:02.289Z,19.46
2019-02-19T00:51:03.396Z,19.43
2019-02-19T00:52:04.513Z,19.45
2019-02-19T00:53:05.736Z,19.45
2019-02-19T00:54:06.849Z,19.45
2019-02-19T00:55:08.500Z,19.46
2019-02-19T00:56:09.717Z,19.44
2019-02-19T00:57:10.829Z,19.45
2019-02-19T00:58:11.951Z,19.46
2019-02-19T00:59:13.067Z,19.46
2019-02-19T01:00:14.817Z,19.45
2019-02-19T01:01:15.933Z,19.45
2019-02-19T01:02:17.535Z,19.45
2019-02-19T01:03:18.644Z,19.44
2019-02-19T01:04:19.873Z,19.44
2019-02-19T01:05:21.122Z,19.44
2019-02-19T01:06:22.232Z,19.43
2019-02-19T01:07:23.440Z,19.42
2019-02-19T01:08:24.656Z,19.43
2019-02-19T01:09:26.465Z,19.42
2019-02-19T01:10:27.693Z,19.41
2019-02-19T01:11:28.802Z,19.40
2019-02-19T01:12:29.916Z,19.40
2019-02-19T01:13:31.035Z,19.39
2019-02-19T01:14:32.256Z,19.38
2019-02-19T01:15:33.400Z,19.37
2019-02-19T01:16:34.620Z,19.36
2019-02-19T01:17:35.736Z,19.36
2019-02-19T01:18:36.856Z,19.35
2019-02-19T01:19:38.074Z,19.35
2019-02-19T01:20:39.204Z,19.36
2019-02-19T01:21:40.372Z,19.35
2019-02-19T01:22:41.485Z,19.35
2019-02-19T01:23:42.602Z,19.34
2019-02-19T01:24:43.824Z,19.33
2019-02-19T01:25:45.062Z,19.33
2019-02-19T01:26:46.173Z,19.34
2019-02-19T01:27:47.296Z,19.33
2019-02-19T01:28:48.404Z,19.33
2019-02-19T01:29:49.521Z,19.33
2019-02-19T01:30:50.692Z,19.33
2019-02-19T01:31:51.804Z,19.32
2019-02-19T01:32:52.921Z,19.33
2019-02-19T01:33:54.041Z,19.32
2019-02-19T01:34:55.161Z,19.31
2019-02-19T01:35:56.287Z,19.31
2019-02-19T01:36:57.396Z,19.32
2019-02-19T01:37:58.617Z,19.31
2019-02-19T01:38:59.734Z,19.31
2019-02-19T01:40:00.858Z,19.32
2019-02-19T01:41:02.023Z,19.31
2019-02-19T01:42:03.135Z,19.32
2019-02-19T01:43:04.257Z,19.32
2019-02-19T01:44:05.392Z,19.32
2019-02-19T01:45:07.514Z,19.32
2019-02-19T01:46:08.640Z,19.32
2019-02-19T01:47:09.753Z,19.34
2019-02-19T01:48:10.873Z,19.34
2019-02-19T01:49:11.983Z,19.35
2019-02-19T01:50:13.088Z,19.35
2019-02-19T01:51:14.240Z,19.35
2019-02-19T01:52:15.355Z,19.37
2019-02-19T01:53:16.468Z,19.37
2019-02-19T01:54:17.595Z,19.37
2019-02-19T01:55:18.700Z,19.36
2019-02-19T01:56:19.849Z,19.38
2019-02-19T01:57:20.970Z,19.38
2019-02-19T01:58:22.076Z,19.38
2019-02-19T01:59:23.193Z,19.38
2019-02-19T02:00:24.409Z,19.38
2019-02-19T02:01:25.649Z,19.39
2019-02-19T02:02:26.760Z,19.39
2019-02-19T02:03:27.873Z,19.40
2019-02-19T02:04:28.985Z,19.40
2019-02-19T02:05:30.100Z,19.41
2019-02-19T02:06:31.357Z,19.40
2019-02-19T02:07:32.478Z,19.41
2019-02-19T02:08:33.599Z,19.41
2019-02-19T02:09:34.718Z,19.41
2019-02-19T02:10:35.832Z,19.40
2019-02-19T02:11:36.956Z,19.41
2019-02-19T02:12:38.177Z,19.41
2019-02-19T02:13:39.292Z,19.41
2019-02-19T02:14:40.404Z,19.40
2019-02-19T02:15:42.859Z,19.40
2019-02-19T02:16:44.348Z,19.38
2019-02-19T02:17:45.469Z,19.38
2019-02-19T02:18:46.585Z,19.38
2019-02-19T02:19:47.701Z,19.36
2019-02-19T02:20:48.824Z,19.36
2019-02-19T02:21:49.968Z,19.35
2019-02-19T02:22:51.174Z,19.34
2019-02-19T02:23:52.289Z,19.33
2019-02-19T02:24:53.400Z,19.32
2019-02-19T02:25:54.516Z,19.32
2019-02-19T02:26:55.779Z,19.31
2019-02-19T02:27:56.911Z,19.31
2019-02-19T02:28:58.025Z,19.30
2019-02-19T02:29:59.142Z,19.30
2019-02-19T02:31:00.253Z,19.30
2019-02-19T02:32:01.377Z,19.30
2019-02-19T02:33:02.492Z,19.30
2019-02-19T02:34:03.606Z,19.30
2019-02-19T02:35:04.717Z,19.28
2019-02-19T02:36:05.836Z,19.30
2019-02-19T02:37:06.961Z,19.30
2019-02-19T02:38:08.080Z,19.30
2019-02-19T02:39:09.197Z,19.31
2019-02-19T02:40:10.434Z,19.31
2019-02-19T02:41:11.564Z,19.31
2019-02-19T02:42:12.694Z,19.32
2019-02-19T02:43:13.809Z,19.32
2019-02-19T02:44:15.029Z,19.32
2019-02-19T02:45:16.249Z,19.31
2019-02-19T02:46:17.357Z,19.31
2019-02-19T02:47:18.507Z,19.32
2019-02-19T02:48:19.626Z,19.32
2019-02-19T02:49:20.763Z,19.33
2019-02-19T02:50:21.988Z,19.33
2019-02-19T02:51:23.109Z,19.33
2019-02-19T02:52:24.239Z,19.33
2019-02-19T02:53:25.348Z,19.33
2019-02-19T02:54:26.465Z,19.33
2019-02-19T02:55:27.685Z,19.34
2019-02-19T02:56:29.107Z,19.34
2019-02-19T02:57:30.234Z,19.35
2019-02-19T02:58:31.348Z,19.35
2019-02-19T02:59:32.461Z,19.35
2019-02-19T03:00:33.684Z,19.37
2019-02-19T03:01:34.802Z,19.36
2019-02-19T03:02:35.936Z,19.37
2019-02-19T03:03:37.052Z,19.36
2019-02-19T03:04:38.168Z,19.36
2019-02-19T03:05:42.986Z,19.37
2019-02-19T03:06:48.562Z,19.37
2019-02-19T03:07:51.597Z,19.36
2019-02-19T03:08:52.723Z,19.38
2019-02-19T03:09:53.837Z,19.36
2019-02-19T03:10:54.954Z,19.36
2019-02-19T03:11:56.069Z,19.36
2019-02-19T03:12:57.192Z,19.36
2019-02-19T03:13:58.310Z,19.35
2019-02-19T03:14:59.425Z,19.35
2019-02-19T03:16:02.689Z,19.35
2019-02-19T03:17:03.764Z,19.34
2019-02-19T03:18:04.907Z,19.32
2019-02-19T03:19:06.012Z,19.33
2019-02-19T03:20:07.148Z,19.32
2019-02-19T03:21:08.238Z,19.32
2019-02-19T03:22:09.353Z,19.31
2019-02-19T03:23:10.512Z,19.31
2019-02-19T03:24:11.626Z,19.29
2019-02-19T03:25:12.832Z,19.29
2019-02-19T03:26:13.953Z,19.29
2019-02-19T03:27:15.170Z,19.28
2019-02-19T03:28:16.302Z,19.28
2019-02-19T03:29:17.519Z,19.28
2019-02-19T03:30:18.634Z,19.28
2019-02-19T03:31:19.858Z,19.27
2019-02-19T03:32:20.985Z,19.28
2019-02-19T03:33:22.217Z,19.27
2019-02-19T03:34:23.334Z,19.28
2019-02-19T03:35:24.449Z,19.28
2019-02-19T03:36:25.566Z,19.28
2019-02-19T03:37:26.692Z,19.28
2019-02-19T03:38:27.816Z,19.28
2019-02-19T03:39:28.937Z,19.30
2019-02-19T03:40:30.257Z,19.28
2019-02-19T03:41:31.379Z,19.29
2019-02-19T03:42:32.507Z,19.29
2019-02-19T03:43:33.735Z,19.29
2019-02-19T03:44:34.844Z,19.29
2019-02-19T03:45:35.955Z,19.29
2019-02-19T03:46:37.073Z,19.30
2019-02-19T03:47:38.242Z,19.31
2019-02-19T03:48:39.312Z,19.30
2019-02-19T03:49:40.420Z,19.30
2019-02-19T03:50:41.541Z,19.30
2019-02-19T03:51:42.691Z,19.30
2019-02-19T03:52:43.813Z,19.30
2019-02-19T03:53:44.966Z,19.31
2019-02-19T03:54:46.088Z,19.31
2019-02-19T03:55:47.239Z,19.31
2019-02-19T03:56:48.348Z,19.31
2019-02-19T03:57:49.657Z,19.31
2019-02-19T03:58:50.885Z,19.32
2019-02-19T03:59:51.998Z,19.33
2019-02-19T04:00:53.117Z,19.33
2019-02-19T04:01:54.240Z,19.33
2019-02-19T04:02:55.441Z,19.34
2019-02-19T04:03:56.562Z,19.33
2019-02-19T04:04:57.780Z,19.33
2019-02-19T04:05:58.899Z,19.34
2019-02-19T04:07:00.016Z,19.35
2019-02-19T04:08:01.128Z,19.35
2019-02-19T04:09:04.152Z,19.34
2019-02-19T04:10:07.066Z,19.33
2019-02-19T04:11:08.284Z,19.34
2019-02-19T04:12:09.391Z,19.34
2019-02-19T04:13:10.506Z,19.34
2019-02-19T04:14:11.638Z,19.33
2019-02-19T04:15:12.849Z,19.32
2019-02-19T04:16:21.084Z,19.33
2019-02-19T04:17:16.972Z,19.32
2019-02-19T04:18:18.092Z,19.32
2019-02-19T04:19:19.249Z,19.31
2019-02-19T04:20:20.360Z,19.30
2019-02-19T04:21:21.472Z,19.30
2019-02-19T04:22:22.656Z,19.29
2019-02-19T04:23:23.777Z,19.29
2019-02-19T04:24:24.937Z,19.28
2019-02-19T04:25:26.057Z,19.28
2019-02-19T04:26:27.170Z,19.27
2019-02-19T04:27:28.280Z,19.27
2019-02-19T04:28:29.399Z,19.26
2019-02-19T04:29:30.628Z,19.25
2019-02-19T04:30:31.755Z,19.26
2019-02-19T04:31:32.869Z,19.26
2019-02-19T04:32:33.976Z,19.25
2019-02-19T04:33:35.089Z,19.26
2019-02-19T04:34:36.324Z,19.26
2019-02-19T04:35:37.436Z,19.26
2019-02-19T04:36:38.665Z,19.26
2019-02-19T04:37:39.781Z,19.26
2019-02-19T04:38:40.895Z,19.26
2019-02-19T04:39:42.026Z,19.26
2019-02-19T04:40:43.148Z,19.27
2019-02-19T04:41:44.278Z,19.28
2019-02-19T04:42:45.405Z,19.27
2019-02-19T04:43:46.527Z,19.29
2019-02-19T04:44:47.675Z,19.28
2019-02-19T04:45:48.789Z,19.29
2019-02-19T04:46:49.905Z,19.29
2019-02-19T04:47:51.030Z,19.30
2019-02-19T04:48:52.139Z,19.30
2019-02-19T04:49:53.292Z,19.31
2019-02-19T04:50:54.409Z,19.30
2019-02-19T04:51:55.533Z,19.30
2019-02-19T04:52:56.647Z,19.29
2019-02-19T04:53:57.761Z,19.30
2019-02-19T04:54:58.894Z,19.30
2019-02-19T04:56:00.019Z,19.30
2019-02-19T04:57:01.129Z,19.29
2019-02-19T04:58:02.250Z,19.30
2019-02-19T04:59:03.358Z,19.30
2019-02-19T05:00:10.338Z,19.30
2019-02-19T05:01:11.440Z,19.31
2019-02-19T05:02:12.669Z,19.30
2019-02-19T05:03:13.778Z,19.30
2019-02-19T05:04:14.894Z,19.32
2019-02-19T05:05:16.130Z,19.31
2019-02-19T05:06:17.344Z,19.31
2019-02-19T05:07:18.458Z,19.30
2019-02-19T05:08:19.568Z,19.31
2019-02-19T05:09:20.690Z,19.31
2019-02-19T05:10:21.808Z,19.30
2019-02-19T05:11:22.931Z,19.30
2019-02-19T05:12:24.054Z,19.29
2019-02-19T05:13:25.176Z,19.28
2019-02-19T05:14:26.296Z,19.28
2019-02-19T05:15:27.433Z,19.29
2019-02-19T05:16:28.537Z,19.28
2019-02-19T05:17:29.657Z,19.27
2019-02-19T05:18:30.772Z,19.26
2019-02-19T05:19:31.888Z,19.26
2019-02-19T05:20:33.013Z,19.26
2019-02-19T05:21:34.124Z,19.25
2019-02-19T05:22:35.238Z,19.25
2019-02-19T05:23:36.357Z,19.25
2019-02-19T05:24:37.474Z,19.24
2019-02-19T05:25:38.604Z,19.25
2019-02-19T05:26:39.727Z,19.23
2019-02-19T05:27:40.949Z,19.24
2019-02-19T05:28:42.065Z,19.24
2019-02-19T05:29:43.186Z,19.25
2019-02-19T05:30:44.422Z,19.24
2019-02-19T05:31:45.542Z,19.24
2019-02-19T05:32:46.664Z,19.23
2019-02-19T05:33:47.790Z,19.24
2019-02-19T05:34:49.007Z,19.25
2019-02-19T05:35:50.135Z,19.24
2019-02-19T05:36:51.722Z,19.25
2019-02-19T05:37:52.827Z,19.24
2019-02-19T05:38:53.953Z,19.24
2019-02-19T05:39:55.053Z,19.24
2019-02-19T05:40:56.181Z,19.24
2019-02-19T05:41:57.313Z,19.25
2019-02-19T05:42:58.456Z,19.24
2019-02-19T05:43:59.677Z,19.25
2019-02-19T05:45:00.792Z,19.25
2019-02-19T05:46:01.918Z,19.25
2019-02-19T05:47:03.047Z,19.25
2019-02-19T05:48:05.331Z,19.26
2019-02-19T05:49:06.580Z,19.26
2019-02-19T05:50:08.496Z,19.27
2019-02-19T05:51:09.766Z,19.27
2019-02-19T05:52:10.881Z,19.27
2019-02-19T05:53:12.102Z,19.28
2019-02-19T05:54:13.221Z,19.30
2019-02-19T05:55:14.329Z,19.29
2019-02-19T05:56:15.651Z,19.29
2019-02-19T05:57:16.760Z,19.30
2019-02-19T05:58:17.876Z,19.29
2019-02-19T05:59:18.991Z,19.30
2019-02-19T06:00:20.223Z,19.30
2019-02-19T06:01:21.377Z,19.31
2019-02-19T06:02:22.499Z,19.31
2019-02-19T06:03:23.614Z,19.32
2019-02-19T06:04:24.731Z,19.32
2019-02-19T06:05:25.842Z,19.33
2019-02-19T06:06:27.085Z,19.34
2019-02-19T06:07:28.188Z,19.34
2019-02-19T06:08:31.122Z,19.34
2019-02-19T06:09:32.240Z,19.37
2019-02-19T06:10:33.356Z,19.38
2019-02-19T06:11:34.509Z,19.40
2019-02-19T06:12:35.636Z,19.44
2019-02-19T06:13:36.754Z,19.48
2019-02-19T06:14:37.868Z,19.50
2019-02-19T06:15:38.987Z,19.54
2019-02-19T06:16:40.254Z,19.59
2019-02-19T06:17:41.362Z,19.62
2019-02-19T06:18:42.476Z,19.68
2019-02-19T06:19:43.688Z,19.74
2019-02-19T06:20:44.812Z,19.78
2019-02-19T06:21:46.043Z,19.83
2019-02-19T06:22:47.263Z,19.89
2019-02-19T06:23:48.379Z,19.94
2019-02-19T06:24:49.499Z,19.98
2019-02-19T06:25:50.726Z,20.04
2019-02-19T06:26:51.848Z,20.10
2019-02-19T06:27:52.968Z,20.15
2019-02-19T06:28:54.083Z,20.21
2019-02-19T06:29:55.199Z,20.26
2019-02-19T06:30:56.312Z,20.31
2019-02-19T06:31:57.437Z,20.37
2019-02-19T06:32:58.552Z,20.43
2019-02-19T06:33:59.669Z,20.49
2019-02-19T06:35:00.888Z,20.54
2019-02-19T06:36:02.015Z,20.58
2019-02-19T06:37:03.141Z,20.63
2019-02-19T06:38:04.262Z,20.68
2019-02-19T06:39:05.575Z,20.73
2019-02-19T06:40:13.075Z,20.78
2019-02-19T06:41:14.189Z,20.82
2019-02-19T06:42:15.360Z,20.86
2019-02-19T06:43:16.590Z,20.89
2019-02-19T06:44:17.711Z,20.93
2019-02-19T06:45:18.815Z,20.97
2019-02-19T06:46:19.935Z,21.01
2019-02-19T06:47:21.095Z,21.06
2019-02-19T06:48:22.312Z,21.09
2019-02-19T06:49:23.424Z,21.12
2019-02-19T06:50:24.557Z,21.15
2019-02-19T06:51:25.661Z,21.17
2019-02-19T06:52:26.790Z,21.22
2019-02-19T06:53:27.904Z,21.25
2019-02-19T06:54:29.017Z,21.28
2019-02-19T06:55:30.129Z,21.30
2019-02-19T06:56:31.240Z,21.34
2019-02-19T06:57:32.484Z,21.36
2019-02-19T06:58:33.601Z,21.39
2019-02-19T06:59:34.722Z,21.42
2019-02-19T07:00:35.836Z,21.44
2019-02-19T07:01:41.697Z,21.46
2019-02-19T07:02:44.763Z,21.47
2019-02-19T07:03:47.784Z,21.50
2019-02-19T07:04:49.705Z,21.52
2019-02-19T07:05:50.829Z,21.53
2019-02-19T07:06:51.945Z,21.53
2019-02-19T07:07:53.068Z,21.55
2019-02-19T07:08:54.185Z,21.55
2019-02-19T07:09:55.310Z,21.56
2019-02-19T07:10:56.421Z,21.57
2019-02-19T07:11:58.857Z,21.58
2019-02-19T07:13:00.202Z,21.58
2019-02-19T07:14:01.326Z,21.58
2019-02-19T07:15:04.140Z,21.57
2019-02-19T07:16:05.367Z,21.57
2019-02-19T07:17:06.483Z,21.58
2019-02-19T07:18:07.613Z,21.57
2019-02-19T07:19:08.725Z,21.56
2019-02-19T07:20:09.843Z,21.56
2019-02-19T07:21:10.959Z,21.55
2019-02-19T07:22:12.076Z,21.54
2019-02-19T07:23:13.211Z,21.53
2019-02-19T07:24:14.436Z,21.53
2019-02-19T07:25:15.552Z,21.53
2019-02-19T07:26:16.673Z,21.52
2019-02-19T07:27:17.898Z,21.52
2019-02-19T07:28:19.133Z,21.50
2019-02-19T07:29:20.249Z,21.51
2019-02-19T07:30:21.472Z,21.50
2019-02-19T07:31:22.585Z,21.51
2019-02-19T07:32:23.811Z,21.50
2019-02-19T07:33:24.971Z,21.51
2019-02-19T07:34:26.089Z,21.51
2019-02-19T07:35:27.200Z,21.51
2019-02-19T07:36:28.321Z,21.51
2019-02-19T07:37:29.436Z,21.51
2019-02-19T07:38:30.678Z,21.52
2019-02-19T07:39:31.896Z,21.53
2019-02-19T07:40:33.025Z,21.53
2019-02-19T07:41:34.136Z,21.53
2019-02-19T07:42:35.267Z,21.53
2019-02-19T07:43:36.435Z,21.53
2019-02-19T07:44:37.553Z,21.53
2019-02-19T07:45:38.672Z,21.54
2019-02-19T07:46:39.785Z,21.54
2019-02-19T07:47:40.905Z,21.54
2019-02-19T07:48:42.141Z,21.54
2019-02-19T07:49:43.360Z,21.55
2019-02-19T07:50:44.478Z,21.55
2019-02-19T07:51:45.593Z,21.56
2019-02-19T07:52:46.712Z,21.55
2019-02-19T07:53:47.845Z,21.56
2019-02-19T07:54:49.076Z,21.56
2019-02-19T07:55:50.193Z,21.57
2019-02-19T07:56:51.308Z,21.58
2019-02-19T07:57:52.424Z,21.58
2019-02-19T07:58:53.662Z,21.59
2019-02-19T07:59:54.780Z,21.59
2019-02-19T08:00:55.899Z,21.59
2019-02-19T08:01:57.129Z,21.60
2019-02-19T08:02:58.258Z,21.60
2019-02-19T08:03:59.382Z,21.59
2019-02-19T08:05:00.560Z,21.60
2019-02-19T08:06:02.008Z,21.60
2019-02-19T08:07:03.126Z,21.61
2019-02-19T08:08:04.248Z,21.61
2019-02-19T08:09:09.087Z,21.60
2019-02-19T08:10:10.896Z,21.60
2019-02-19T08:11:12.009Z,21.61
2019-02-19T08:12:13.125Z,21.59
2019-02-19T08:13:14.242Z,21.59
2019-02-19T08:14:15.377Z,21.58
2019-02-19T08:15:16.493Z,21.59
2019-02-19T08:16:18.997Z,21.57
2019-02-19T08:17:20.230Z,21.58
2019-02-19T08:18:21.349Z,21.57
2019-02-19T08:19:22.479Z,21.56
2019-02-19T08:20:23.595Z,21.56
2019-02-19T08:21:24.724Z,21.56
2019-02-19T08:22:25.829Z,21.56
2019-02-19T08:23:26.946Z,21.55
2019-02-19T08:24:28.100Z,21.55
2019-02-19T08:25:29.216Z,21.55
2019-02-19T08:26:30.333Z,21.55
2019-02-19T08:27:31.448Z,21.54
2019-02-19T08:28:32.562Z,21.54
2019-02-19T08:29:33.692Z,21.53
2019-02-19T08:30:34.910Z,21.53
2019-02-19T08:31:36.021Z,21.52
2019-02-19T08:32:37.144Z,21.51
2019-02-19T08:33:38.252Z,21.49
2019-02-19T08:34:39.389Z,21.49
2019-02-19T08:35:40.496Z,21.46
2019-02-19T08:36:41.616Z,21.45
2019-02-19T08:37:42.837Z,21.44
2019-02-19T08:38:43.952Z,21.41
2019-02-19T08:39:45.081Z,21.40
2019-02-19T08:40:46.228Z,21.38
2019-02-19T08:41:47.440Z,21.35
2019-02-19T08:42:48.670Z,21.33
2019-02-19T08:43:49.795Z,21.30
2019-02-19T08:44:51.064Z,21.28
2019-02-19T08:45:52.447Z,21.25
2019-02-19T08:46:53.586Z,21.24
2019-02-19T08:47:55.045Z,21.22
2019-02-19T08:48:56.160Z,21.18
2019-02-19T08:49:58.100Z,21.18
2019-02-19T08:50:59.313Z,21.15
2019-02-19T08:52:00.424Z,21.15
2019-02-19T08:53:01.541Z,21.13
2019-02-19T08:54:02.656Z,21.12
2019-02-19T08:55:04.712Z,21.11
2019-02-19T08:56:05.933Z,21.11
2019-02-19T08:57:07.048Z,21.10
2019-02-19T08:58:08.271Z,21.10
2019-02-19T08:59:09.488Z,21.10
2019-02-19T09:00:10.840Z,21.11
2019-02-19T09:01:11.962Z,21.11
2019-02-19T09:02:13.098Z,21.09
2019-02-19T09:03:14.212Z,21.11
2019-02-19T09:04:15.329Z,21.11
2019-02-19T09:05:16.475Z,21.11
2019-02-19T09:06:17.578Z,21.13
2019-02-19T09:07:18.692Z,21.13
2019-02-19T09:08:19.807Z,21.14
2019-02-19T09:09:20.931Z,21.14
2019-02-19T09:10:22.061Z,21.13
2019-02-19T09:11:23.185Z,21.15
2019-02-19T09:12:24.306Z,21.15
2019-02-19T09:13:25.424Z,21.15
2019-02-19T09:14:26.541Z,21.16
2019-02-19T09:15:27.672Z,21.16
2019-02-19T09:16:28.785Z,21.16
2019-02-19T09:17:29.900Z,21.17
2019-02-19T09:18:31.123Z,21.17
2019-02-19T09:19:32.236Z,21.17
2019-02-19T09:20:33.369Z,21.17
2019-02-19T09:21:34.484Z,21.16
2019-02-19T09:22:35.612Z,21.17
2019-02-19T09:23:36.716Z,21.16
2019-02-19T09:24:37.840Z,21.15
2019-02-19T09:25:38.963Z,21.14
2019-02-19T09:26:40.086Z,21.14
2019-02-19T09:27:43.300Z,21.13
2019-02-19T09:28:44.330Z,21.11
2019-02-19T09:29:45.458Z,21.12
2019-02-19T09:30:46.582Z,21.09
2019-02-19T09:31:47.700Z,21.07
2019-02-19T09:32:48.818Z,21.06
2019-02-19T09:33:49.933Z,21.04
2019-02-19T09:34:52.658Z,21.04
2019-02-19T09:35:53.888Z,21.03
2019-02-19T09:36:55.007Z,21.03
2019-02-19T09:37:56.232Z,21.03
2019-02-19T09:38:57.342Z,21.04
2019-02-19T09:39:58.505Z,21.04
2019-02-19T09:40:59.638Z,21.04
2019-02-19T09:42:00.757Z,21.06
2019-02-19T09:43:01.915Z,21.07
2019-02-19T09:44:03.021Z,21.08
2019-02-19T09:45:06.657Z,21.09
2019-02-19T09:46:07.778Z,21.10
2019-02-19T09:47:08.941Z,21.10
2019-02-19T09:48:10.048Z,21.11
2019-02-19T09:49:11.171Z,21.12
2019-02-19T09:50:12.456Z,21.13
2019-02-19T09:51:13.593Z,21.14
2019-02-19T09:52:14.709Z,21.16
2019-02-19T09:53:15.888Z,21.16
2019-02-19T09:54:17.044Z,21.17
2019-02-19T09:55:18.162Z,21.17
2019-02-19T09:56:19.291Z,21.17
2019-02-19T09:57:20.414Z,21.19
2019-02-19T09:58:21.533Z,21.19
2019-02-19T09:59:22.650Z,21.20
2019-02-19T10:00:23.866Z,21.19
2019-02-19T10:01:25.108Z,21.20
2019-02-19T10:02:26.232Z,21.19
2019-02-19T10:03:27.349Z,21.19
2019-02-19T10:04:28.603Z,21.19
2019-02-19T10:05:29.685Z,21.19
2019-02-19T10:06:30.825Z,21.18
2019-02-19T10:07:32.049Z,21.17
2019-02-19T10:08:33.174Z,21.18
2019-02-19T10:09:34.294Z,21.20
2019-02-19T10:10:35.409Z,21.20
2019-02-19T10:11:36.539Z,21.19
2019-02-19T10:12:37.654Z,21.19
2019-02-19T10:13:38.771Z,21.20
2019-02-19T10:14:39.889Z,21.20
2019-02-19T10:15:41.005Z,21.20
2019-02-19T10:16:42.292Z,21.21
2019-02-19T10:17:43.468Z,21.22
2019-02-19T10:18:44.590Z,21.21
2019-02-19T10:19:45.711Z,21.23
2019-02-19T10:20:51.880Z,21.23
2019-02-19T10:21:53.164Z,21.24
2019-02-19T10:22:54.280Z,21.24
2019-02-19T10:23:55.398Z,21.25
2019-02-19T10:24:56.513Z,21.25
2019-02-19T10:25:57.629Z,21.26
2019-02-19T10:26:58.785Z,21.28
2019-02-19T10:27:59.900Z,21.28
2019-02-19T10:29:01.016Z,21.28
2019-02-19T10:30:04.948Z,21.30
2019-02-19T10:31:06.064Z,21.32
2019-02-19T10:32:07.198Z,21.32
2019-02-19T10:33:08.311Z,21.33
2019-02-19T10:34:09.525Z,21.34
2019-02-19T10:35:10.937Z,21.35
2019-02-19T10:36:12.060Z,21.36
2019-02-19T10:37:13.182Z,21.37
2019-02-19T10:38:14.312Z,21.38
2019-02-19T10:39:15.420Z,21.39
2019-02-19T10:40:19.842Z,21.39
2019-02-19T10:41:20.954Z,21.39
2019-02-19T10:42:22.081Z,21.40
2019-02-19T10:43:23.556Z,21.40
2019-02-19T10:44:24.836Z,21.41
2019-02-19T10:45:26.046Z,21.41
2019-02-19T10:46:27.262Z,21.40
2019-02-19T10:47:28.379Z,21.40
2019-02-19T10:48:29.499Z,21.40
2019-02-19T10:49:30.627Z,21.40
2019-02-19T10:50:31.849Z,21.40
2019-02-19T10:51:32.964Z,21.40
2019-02-19T10:52:34.081Z,21.39
2019-02-19T10:53:35.201Z,21.39
2019-02-19T10:54:36.326Z,21.38
2019-02-19T10:55:37.445Z,21.38
2019-02-19T10:56:38.562Z,21.39
2019-02-19T10:57:39.791Z,21.38
2019-02-19T10:58:40.901Z,21.37
2019-02-19T10:59:42.144Z,21.38
2019-02-19T11:00:43.252Z,21.35
2019-02-19T11:01:44.464Z,21.35
2019-02-19T11:02:45.788Z,21.35
2019-02-19T11:03:46.901Z,21.08
2019-02-19T11:04:48.056Z,21.32
2019-02-19T11:05:49.177Z,21.30
2019-02-19T11:06:50.401Z,21.29
2019-02-19T11:07:51.513Z,21.28
2019-02-19T11:08:52.631Z,21.27
2019-02-19T11:09:53.767Z,21.26
2019-02-19T11:10:54.887Z,21.26
2019-02-19T11:11:58.023Z,21.25
2019-02-19T11:12:59.030Z,21.25
2019-02-19T11:14:00.148Z,21.25
2019-02-19T11:15:01.272Z,21.24
2019-02-19T11:16:03.434Z,21.25
2019-02-19T11:17:04.803Z,21.25
2019-02-19T11:18:05.919Z,21.25
2019-02-19T11:19:07.038Z,21.24
2019-02-19T11:20:13.817Z,21.25
2019-02-19T11:21:19.525Z,21.25
2019-02-19T11:22:17.958Z,21.25
2019-02-19T11:23:19.074Z,21.25
2019-02-19T11:24:20.299Z,21.25
2019-02-19T11:25:21.455Z,21.26
2019-02-19T11:26:22.579Z,21.26
2019-02-19T11:27:23.710Z,21.27
2019-02-19T11:28:24.952Z,21.27
2019-02-19T11:29:26.044Z,21.27
2019-02-19T11:30:27.172Z,21.28
2019-02-19T11:31:28.289Z,21.28
2019-02-19T11:32:29.404Z,21.29
2019-02-19T11:33:30.629Z,21.30
2019-02-19T11:34:31.748Z,21.30
2019-02-19T11:35:32.872Z,21.31
2019-02-19T11:36:33.994Z,21.33
2019-02-19T11:37:35.109Z,21.33
2019-02-19T11:38:36.221Z,21.34
2019-02-19T11:39:37.339Z,21.34
2019-02-19T11:40:38.577Z,21.35
2019-02-19T11:41:39.800Z,21.34
2019-02-19T11:42:40.921Z,21.36
2019-02-19T11:43:42.050Z,21.35
2019-02-19T11:44:43.163Z,21.35
2019-02-19T11:45:44.429Z,21.34
2019-02-19T11:46:45.553Z,21.35
2019-02-19T11:47:46.657Z,21.34
2019-02-19T11:48:47.778Z,21.33
2019-02-19T11:49:48.898Z,21.33
2019-02-19T11:50:50.034Z,21.33
2019-02-19T11:51:51.155Z,21.32
2019-02-19T11:52:52.276Z,21.31
2019-02-19T11:53:53.511Z,21.30
2019-02-19T11:54:54.631Z,21.30
2019-02-19T11:55:56.210Z,21.30
2019-02-19T11:56:57.328Z,21.29
2019-02-19T11:57:58.548Z,21.28
2019-02-19T11:58:59.665Z,21.27
2019-02-19T12:00:00.890Z,21.26
2019-02-19T12:01:02.247Z,21.25
2019-02-19T12:02:05.266Z,21.23
2019-02-19T12:03:06.520Z,21.24
2019-02-19T12:04:07.638Z,21.22
2019-02-19T12:05:08.856Z,21.21
2019-02-19T12:06:10.008Z,21.21
2019-02-19T12:07:11.126Z,21.20
2019-02-19T12:08:12.246Z,21.19
2019-02-19T12:09:13.361Z,21.19
2019-02-19T12:10:14.482Z,21.19
2019-02-19T12:11:15.645Z,21.19
2019-02-19T12:12:16.759Z,21.20
2019-02-19T12:13:17.890Z,21.19
2019-02-19T12:14:19.008Z,21.19
2019-02-19T12:15:20.116Z,21.19
2019-02-19T12:16:21.258Z,21.20
2019-02-19T12:17:22.374Z,21.20
2019-02-19T12:18:23.495Z,21.19
2019-02-19T12:19:24.614Z,21.20
2019-02-19T12:20:25.727Z,21.21
2019-02-19T12:21:26.853Z,21.21
2019-02-19T12:22:27.969Z,21.22
2019-02-19T12:23:29.084Z,21.22
2019-02-19T12:24:30.303Z,21.22
2019-02-19T12:25:31.422Z,21.23
2019-02-19T12:26:32.547Z,21.24
2019-02-19T12:27:33.750Z,21.24
2019-02-19T12:28:34.884Z,21.25
2019-02-19T12:29:35.992Z,21.25
2019-02-19T12:30:37.238Z,21.25
2019-02-19T12:31:38.368Z,21.25
2019-02-19T12:32:39.492Z,21.26
2019-02-19T12:33:40.614Z,21.27
2019-02-19T12:34:41.824Z,21.27
2019-02-19T12:35:43.065Z,21.27
2019-02-19T12:36:44.205Z,21.28
2019-02-19T12:37:45.525Z,21.28
2019-02-19T12:38:46.645Z,21.28
2019-02-19T12:39:47.764Z,21.28
2019-02-19T12:40:49.229Z,21.28
2019-02-19T12:41:50.364Z,21.28
2019-02-19T12:42:51.486Z,21.28
2019-02-19T12:43:52.631Z,21.28
2019-02-19T12:44:53.749Z,21.28
2019-02-19T12:45:54.858Z,21.29
2019-02-19T12:46:56.088Z,21.26
2019-02-19T12:47:57.203Z,21.26
2019-02-19T12:48:58.322Z,21.25
2019-02-19T12:49:59.552Z,21.25
2019-02-19T12:51:00.648Z,21.25
2019-02-19T12:52:01.882Z,21.23
2019-02-19T12:53:02.994Z,21.23
2019-02-19T12:54:04.113Z,21.21
2019-02-19T12:55:06.325Z,21.21
2019-02-19T12:56:07.439Z,21.20
2019-02-19T12:57:08.702Z,21.20
2019-02-19T12:58:09.843Z,21.20
2019-02-19T12:59:10.942Z,21.19
2019-02-19T13:00:16.034Z,21.18
2019-02-19T13:01:17.148Z,21.18
2019-02-19T13:02:19.629Z,21.17
2019-02-19T13:03:21.009Z,21.17
2019-02-19T13:04:22.124Z,21.16
2019-02-19T13:05:23.243Z,21.16
2019-02-19T13:06:24.354Z,21.17
2019-02-19T13:07:25.614Z,21.17
2019-02-19T13:08:26.731Z,21.18